Time,TemperatureF,DewpointF,PressureIn,WindDirection,WindDirectionDegrees,WindSpeedMPH,WindSpeedGustMPH,Humidity,HourlyPrecipIn,Conditions,Clouds,dailyrainin,SoftwareType,DateUTC
2013-09-23 00:03:00,39.2,23.8,0.00,ENE,73,23.8,-999.0,53,0.00,,,-99.99,,2013-09-23 08:03:00,
2013-09-23 00:08:00,39.3,23.5,0.00,NE,41,39.4,-999.0,52,0.05,,,-99.99,,2013-09-23 08:08:00,
2013-09-23 00:13:00,39.2,23.6,0.00,ENE,67,28.1,-999.0,53,0.03,,,-99.99,,2013-09-23 08:13:00,
2013-09-23 00:18:00,39.4,23.6,0.00,ENE,69,26.9,-999.0,52,0.00,,,-99.99,,2013-09-23 08:18:00,
2013-09-23 00:23:00,39.4,23.1,0.00,ENE,64,27.5,-999.0,51,0.01,,,-99.99,,2013-09-23 08:23:00,
2013-09-23 00:28:00,39.4,22.2,0.00,East,83,50.5,-999.0,49,0.07,,,-99.99,,2013-09-23 08:28:00,
2013-09-23 00:33:00,39.5,23.5,0.00,NE,43,31.4,-999.0,52,0.00,,,-99.99,,2013-09-23 08:33:00,
2013-09-23 00:38:00,39.4,23.6,0.00,East,93,30.7,-999.0,52,0.09,,,-99.99,,2013-09-23 08:38:00,
2013-09-23 00:43:00,39.5,23.5,0.00,ENE,78,33.6,-999.0,52,0.00,,,-99.99,,2013-09-23 08:43:00,
2013-09-23 00:48:00,39.4,23.5,0.00,ENE,76,56.3,-999.0,52,0.04,,,-99.99,,2013-09-23 08:48:00,
2013-09-23 00:53:00,39.3,23.8,0.00,ENE,60,30.3,-999.0,53,0.00,,,-99.99,,2013-09-23 08:53:00,
2013-09-23 00:58:00,39.3,24.4,0.00,East,80,33.0,-999.0,54,0.00,,,-99.99,,2013-09-23 08:58:00,
2013-09-23 01:03:00,39.4,24.5,0.00,ENE,73,41.8,-999.0,54,0.03,,,-99.99,,2013-09-23 09:03:00,
2013-09-23 01:08:00,39.4,24.7,0.00,ENE,74,31.6,-999.0,55,0.11,,,-99.99,,2013-09-23 09:08:00,
2013-09-23 01:13:00,39.4,25.4,0.00,ESE,113,18.6,-999.0,56,0.00,,,-99.99,,2013-09-23 09:13:00,
2013-09-23 01:18:00,39.4,25.1,0.00,ENE,69,49.5,-999.0,56,0.08,,,-99.99,,2013-09-23 09:18:00,
2013-09-23 01:23:00,39.6,24.9,0.00,ESE,103,36.6,-999.0,55,0.00,,,-99.99,,2013-09-23 09:23:00,
2013-09-23 01:28:00,39.6,23.8,0.00,East,100,29.3,-999.0,52,0.02,,,-99.99,,2013-09-23 09:28:00,
2013-09-23 01:33:00,39.4,23.9,0.00,ENE,78,48.6,-999.0,53,0.00,,,-99.99,,2013-09-23 09:33:00,
2013-09-23 01:38:00,39.4,23.9,0.00,East,88,29.9,-999.0,53,0.00,,,-99.99,,2013-09-23 09:38:00,
2013-09-23 01:43:00,39.2,23.9,0.00,ESE,111,32.8,-999.0,53,0.05,,,-99.99,,2013-09-23 09:43:00,
2013-09-23 01:48:00,39.4,24.1,0.00,ESE,106,28.4,-999.0,53,0.00,,,-99.99,,2013-09-23 09:48:00,
2013-09-23 01:53:00,39.1,24.7,0.00,East,79,12.3,-999.0,56,0.00,,,-99.99,,2013-09-23 09:53:00,
2013-09-23 01:58:00,39.1,24.3,0.00,ESE,116,18.4,-999.0,54,0.00,,,-99.99,,2013-09-23 09:58:00,
2013-09-23 02:03:00,39.2,25.0,0.00,East,79,29.4,-999.0,56,0.01,,,-99.99,,2013-09-23 10:03:00,
2013-09-23 02:08:00,39.1,25.1,0.00,SE,124,19.5,-999.0,56,0.00,,,-99.99,,2013-09-23 10:08:00,
2013-09-23 02:13:00,39.4,25.5,0.00,East,99,19.5,-999.0,57,0.00,,,-99.99,,2013-09-23 10:13:00,
2013-09-23 02:18:00,39.5,25.8,0.00,ENE,74,31.6,-999.0,57,0.00,,,-99.99,,2013-09-23 10:18:00,
2013-09-23 02:23:00,39.3,25.9,0.00,NE,44,30.8,-999.0,58,0.14,,,-99.99,,2013-09-23 10:23:00,
2013-09-23 02:28:00,39.6,25.9,0.00,East,81,27.9,-999.0,57,0.00,,,-99.99,,2013-09-23 10:28:00,
2013-09-23 02:33:00,39.4,24.5,0.00,East,82,25.6,-999.0,54,0.00,,,-99.99,,2013-09-23 10:33:00,
2013-09-23 02:38:00,39.4,24.1,0.00,East,96,31.5,-999.0,53,0.00,,,-99.99,,2013-09-23 10:38:00,
2013-09-23 02:43:00,39.2,24.2,0.00,WNW,288,7.2,-999.0,54,0.00,,,-99.99,,2013-09-23 10:43:00,
2013-09-23 02:48:00,39.0,24.4,0.00,ENE,78,43.0,-999.0,55,0.02,,,-99.99,,2013-09-23 10:48:00,
2013-09-23 02:53:00,38.8,24.8,0.00,East,87,36.7,-999.0,56,0.00,,,-99.99,,2013-09-23 10:53:00,
2013-09-23 02:58:00,38.8,24.9,0.00,East,94,35.9,-999.0,57,0.00,,,-99.99,,2013-09-23 10:58:00,
2013-09-23 03:03:00,39.0,24.9,0.00,East,101,31.2,-999.0,56,0.00,,,-99.99,,2013-09-23 11:03:00,
2013-09-23 03:08:00,38.6,25.2,0.00,East,85,20.8,-999.0,58,0.03,,,-99.99,,2013-09-23 11:08:00,
2013-09-23 03:13:00,38.7,24.9,0.00,East,81,51.6,-999.0,57,0.07,,,-99.99,,2013-09-23 11:13:00,
2013-09-23 03:18:00,38.7,25.4,0.00,East,90,26.7,-999.0,58,0.00,,,-99.99,,2013-09-23 11:18:00,
2013-09-23 03:23:00,38.3,25.7,0.00,East,81,31.4,-999.0,60,0.00,,,-99.99,,2013-09-23 11:23:00,
2013-09-23 03:28:00,38.4,26.3,0.00,East,100,28.0,-999.0,61,0.00,,,-99.99,,2013-09-23 11:28:00,
2013-09-23 03:33:00,38.5,27.0,0.00,East,97,23.7,-999.0,62,0.00,,,-99.99,,2013-09-23 11:33:00,
2013-09-23 03:38:00,38.5,27.2,0.00,ENE,74,31.8,-999.0,63,0.01,,,-99.99,,2013-09-23 11:38:00,
2013-09-23 03:43:00,38.6,27.5,0.00,SE,130,31.7,-999.0,63,0.00,,,-99.99,,2013-09-23 11:43:00,
2013-09-23 03:48:00,38.6,28.1,0.00,East,81,24.1,-999.0,65,0.00,,,-99.99,,2013-09-23 11:48:00,
2013-09-23 03:53:00,38.3,27.4,0.00,ENE,70,27.3,-999.0,64,0.00,,,-99.99,,2013-09-23 11:53:00,
2013-09-23 03:58:00,38.3,27.3,0.00,ENE,72,35.9,-999.0,64,0.02,,,-99.99,,2013-09-23 11:58:00,
2013-09-23 04:03:00,38.3,26.8,0.00,East,79,32.1,-999.0,63,0.00,,,-99.99,,2013-09-23 12:03:00,
2013-09-23 04:08:00,38.6,25.6,0.00,ENE,70,24.4,-999.0,59,0.00,,,-99.99,,2013-09-23 12:08:00,
2013-09-23 04:13:00,38.1,24.8,0.00,ENE,62,44.0,-999.0,58,0.01,,,-99.99,,2013-09-23 12:13:00,
2013-09-23 04:18:00,38.3,24.4,0.00,ENE,60,25.5,-999.0,56,0.00,,,-99.99,,2013-09-23 12:18:00,
2013-09-23 04:23:00,38.1,24.6,0.00,ENE,74,37.3,-999.0,57,0.02,,,-99.99,,2013-09-23 12:23:00,
2013-09-23 04:28:00,38.3,24.6,0.00,ENE,74,39.8,-999.0,57,0.00,,,-99.99,,2013-09-23 12:28:00,
2013-09-23 04:33:00,38.1,25.0,0.00,ESE,107,23.5,-999.0,58,0.00,,,-99.99,,2013-09-23 12:33:00,
2013-09-23 04:38:00,37.9,25.8,0.00,East,81,39.7,-999.0,61,0.00,,,-99.99,,2013-09-23 12:38:00,
2013-09-23 04:43:00,38.0,26.5,0.00,East,79,17.2,-999.0,63,0.00,,,-99.99,,2013-09-23 12:43:00,
2013-09-23 04:48:00,37.8,26.9,0.00,East,85,30.6,-999.0,64,0.00,,,-99.99,,2013-09-23 12:48:00,
2013-09-23 04:53:00,37.8,27.1,0.00,ENE,76,23.7,-999.0,65,0.00,,,-99.99,,2013-09-23 12:53:00,
2013-09-23 04:58:00,37.8,27.2,0.00,East,92,29.8,-999.0,65,0.00,,,-99.99,,2013-09-23 12:58:00,
2013-09-23 05:03:00,37.8,27.4,0.00,East,90,22.0,-999.0,65,0.00,,,-99.99,,2013-09-23 13:03:00,
2013-09-23 05:08:00,37.8,27.2,0.00,East,90,30.8,-999.0,65,0.07,,,-99.99,,2013-09-23 13:08:00,
2013-09-23 05:13:00,37.9,27.3,0.00,East,92,39.0,-999.0,65,0.02,,,-99.99,,2013-09-23 13:13:00,
2013-09-23 05:18:00,37.8,26.4,0.00,East,88,43.0,-999.0,63,0.09,,,-99.99,,2013-09-23 13:18:00,
2013-09-23 05:23:00,37.9,26.7,0.00,ENE,76,27.6,-999.0,63,0.00,,,-99.99,,2013-09-23 13:23:00,
2013-09-23 05:28:00,37.8,26.5,0.00,East,91,24.6,-999.0,63,0.00,,,-99.99,,2013-09-23 13:28:00,
2013-09-23 05:33:00,37.6,26.3,0.00,SE,128,22.6,-999.0,63,0.00,,,-99.99,,2013-09-23 13:33:00,
2013-09-23 05:38:00,37.6,26.3,0.00,ENE,73,24.0,-999.0,63,0.00,,,-99.99,,2013-09-23 13:38:00,
2013-09-23 05:43:00,37.3,26.0,0.00,East,94,22.4,-999.0,63,0.00,,,-99.99,,2013-09-23 13:43:00,
2013-09-23 05:48:00,37.3,26.3,0.00,East,98,7.1,-999.0,64,0.00,,,-99.99,,2013-09-23 13:48:00,
2013-09-23 05:53:00,37.4,26.5,0.00,ENE,77,33.7,-999.0,64,0.00,,,-99.99,,2013-09-23 13:53:00,
2013-09-23 05:58:00,37.4,26.7,0.00,ENE,58,30.8,-999.0,64,0.00,,,-99.99,,2013-09-23 13:58:00,
2013-09-23 06:03:00,37.2,26.3,0.00,East,79,30.2,-999.0,64,0.00,,,-99.99,,2013-09-23 14:03:00,
2013-09-23 06:08:00,37.3,26.4,0.00,East,83,37.9,-999.0,64,0.03,,,-99.99,,2013-09-23 14:08:00,
2013-09-23 06:13:00,37.3,26.7,0.00,East,81,24.4,-999.0,64,0.00,,,-99.99,,2013-09-23 14:13:00,
2013-09-23 06:18:00,37.5,26.7,0.00,NE,39,16.8,-999.0,64,0.00,,,-99.99,,2013-09-23 14:18:00,
2013-09-23 06:23:00,37.3,26.6,0.00,ENE,69,24.1,-999.0,64,0.00,,,-99.99,,2013-09-23 14:23:00,
2013-09-23 06:28:00,37.5,26.6,0.00,East,83,38.7,-999.0,64,0.00,,,-99.99,,2013-09-23 14:28:00,
2013-09-23 06:33:00,37.2,26.6,0.00,East,90,29.2,-999.0,65,0.01,,,-99.99,,2013-09-23 14:33:00,
2013-09-23 06:38:00,37.3,26.5,0.00,ESE,105,15.2,-999.0,64,0.00,,,-99.99,,2013-09-23 14:38:00,
2013-09-23 06:43:00,37.3,26.1,0.00,East,82,13.7,-999.0,63,0.00,,,-99.99,,2013-09-23 14:43:00,
2013-09-23 06:48:00,37.2,26.2,0.00,ENE,75,28.9,-999.0,64,0.00,,,-99.99,,2013-09-23 14:48:00,
2013-09-23 06:53:00,37.2,26.0,0.00,ENE,62,31.0,-999.0,63,0.00,,,-99.99,,2013-09-23 14:53:00,
2013-09-23 06:58:00,37.4,25.9,0.00,ENE,57,18.1,-999.0,62,0.00,,,-99.99,,2013-09-23 14:58:00,
2013-09-23 07:03:00,37.2,25.8,0.00,ENE,74,9.9,-999.0,63,0.00,,,-99.99,,2013-09-23 15:03:00,
2013-09-23 07:08:00,36.9,25.5,0.00,ENE,77,19.5,-999.0,63,0.00,,,-99.99,,2013-09-23 15:08:00,
2013-09-23 07:13:00,37.2,25.1,0.00,ENE,68,29.3,-999.0,61,0.00,,,-99.99,,2013-09-23 15:13:00,
2013-09-23 07:18:00,37.4,24.5,0.00,East,82,13.7,-999.0,59,0.00,,,-99.99,,2013-09-23 15:18:00,
2013-09-23 07:23:00,37.1,24.1,0.00,East,92,21.3,-999.0,58,0.00,,,-99.99,,2013-09-23 15:23:00,
2013-09-23 07:28:00,37.1,23.7,0.00,East,79,27.1,-999.0,58,0.00,,,-99.99,,2013-09-23 15:28:00,
2013-09-23 07:33:00,37.3,23.8,0.00,East,83,17.8,-999.0,57,0.00,,,-99.99,,2013-09-23 15:33:00,
2013-09-23 07:38:00,37.1,23.7,0.00,East,86,30.6,-999.0,57,0.00,,,-99.99,,2013-09-23 15:38:00,
2013-09-23 07:43:00,37.2,23.7,0.00,SE,140,10.3,-999.0,57,0.00,,,-99.99,,2013-09-23 15:43:00,
2013-09-23 07:48:00,37.3,23.8,0.00,ESE,121,11.5,-999.0,57,0.00,,,-99.99,,2013-09-23 15:48:00,
2013-09-23 07:53:00,37.1,23.7,0.00,ENE,73,20.4,-999.0,58,0.00,,,-99.99,,2013-09-23 15:53:00,
2013-09-23 07:58:00,37.3,23.2,0.00,ESE,105,21.0,-999.0,56,0.00,,,-99.99,,2013-09-23 15:58:00,
2013-09-23 08:03:00,37.1,22.3,0.00,ENE,73,27.0,-999.0,54,0.00,,,-99.99,,2013-09-23 16:03:00,
2013-09-23 08:08:00,36.9,22.2,0.00,SE,129,31.0,-999.0,54,0.00,,,-99.99,,2013-09-23 16:08:00,
2013-09-23 08:13:00,37.1,22.4,0.00,ESE,118,15.7,-999.0,54,0.00,,,-99.99,,2013-09-23 16:13:00,
2013-09-23 08:18:00,37.2,22.5,0.00,ENE,78,12.3,-999.0,54,0.01,,,-99.99,,2013-09-23 16:18:00,
2013-09-23 08:23:00,37.0,22.6,0.00,East,87,45.0,-999.0,55,0.14,,,-99.99,,2013-09-23 16:23:00,
2013-09-23 08:28:00,37.0,22.9,0.00,East,85,33.6,-999.0,56,0.00,,,-99.99,,2013-09-23 16:28:00,
2013-09-23 08:33:00,37.0,22.9,0.00,East,96,17.8,-999.0,56,0.00,,,-99.99,,2013-09-23 16:33:00,
2013-09-23 08:38:00,36.9,22.5,0.00,East,88,32.2,-999.0,55,0.00,,,-99.99,,2013-09-23 16:38:00,
2013-09-23 08:43:00,37.1,20.4,0.00,East,89,40.3,-999.0,50,0.10,,,-99.99,,2013-09-23 16:43:00,
2013-09-23 08:48:00,37.3,19.4,0.00,ENE,75,31.6,-999.0,48,0.01,,,-99.99,,2013-09-23 16:48:00,
2013-09-23 08:53:00,36.9,19.8,0.00,East,88,55.4,-999.0,49,0.00,,,-99.99,,2013-09-23 16:53:00,
2013-09-23 08:58:00,36.9,19.9,0.00,East,84,28.9,-999.0,49,0.00,,,-99.99,,2013-09-23 16:58:00,
2013-09-23 09:03:00,36.6,20.1,0.00,East,98,30.3,-999.0,50,0.00,,,-99.99,,2013-09-23 17:03:00,
2013-09-23 09:08:00,36.6,20.1,0.00,East,94,36.7,-999.0,50,0.01,,,-99.99,,2013-09-23 17:08:00,
2013-09-23 09:13:00,37.0,19.8,0.00,ESE,109,25.1,-999.0,49,0.00,,,-99.99,,2013-09-23 17:13:00,
2013-09-23 09:18:00,37.0,20.1,0.00,NE,36,15.5,-999.0,49,0.00,,,-99.99,,2013-09-23 17:18:00,
2013-09-23 09:23:00,37.2,20.5,0.00,ESE,118,22.1,-999.0,50,0.16,,,-99.99,,2013-09-23 17:23:00,
2013-09-23 09:28:00,36.9,20.0,0.00,ESE,121,20.8,-999.0,50,0.00,,,-99.99,,2013-09-23 17:28:00,
2013-09-23 09:33:00,36.8,20.3,0.00,NE,54,28.2,-999.0,50,0.00,,,-99.99,,2013-09-23 17:33:00,
2013-09-23 09:38:00,37.0,20.3,0.00,ESE,116,8.6,-999.0,50,0.00,,,-99.99,,2013-09-23 17:38:00,
2013-09-23 09:43:00,37.0,19.6,0.00,ESE,103,24.9,-999.0,49,0.00,,,-99.99,,2013-09-23 17:43:00,
2013-09-23 09:48:00,36.9,19.9,0.00,ENE,76,26.8,-999.0,49,0.00,,,-99.99,,2013-09-23 17:48:00,
2013-09-23 09:53:00,36.9,20.4,0.00,ENE,70,22.0,-999.0,50,0.00,,,-99.99,,2013-09-23 17:53:00,
2013-09-23 09:58:00,37.0,20.7,0.00,ESE,119,18.4,-999.0,51,0.00,,,-99.99,,2013-09-23 17:58:00,
2013-09-23 10:03:00,37.0,20.4,0.00,East,88,26.7,-999.0,50,0.00,,,-99.99,,2013-09-23 18:03:00,
2013-09-23 10:08:00,36.9,19.9,0.00,ESE,116,30.6,-999.0,49,0.02,,,-99.99,,2013-09-23 18:08:00,
2013-09-23 10:13:00,37.3,20.2,0.00,East,88,23.4,-999.0,49,0.00,,,-99.99,,2013-09-23 18:13:00,
2013-09-23 10:18:00,37.4,19.9,0.00,NE,47,10.4,-999.0,48,0.00,,,-99.99,,2013-09-23 18:18:00,
2013-09-23 10:23:00,37.6,20.1,0.00,East,94,13.6,-999.0,48,0.00,,,-99.99,,2013-09-23 18:23:00,
2013-09-23 10:28:00,37.5,19.3,0.00,East,100,18.4,-999.0,47,0.00,,,-99.99,,2013-09-23 18:28:00,
2013-09-23 10:33:00,37.6,19.7,0.00,East,96,12.2,-999.0,47,0.00,,,-99.99,,2013-09-23 18:33:00,
2013-09-23 10:38:00,37.8,20.1,0.00,East,101,13.6,-999.0,48,0.00,,,-99.99,,2013-09-23 18:38:00,
2013-09-23 10:43:00,38.0,18.9,0.00,SE,131,24.2,-999.0,45,0.00,,,-99.99,,2013-09-23 18:43:00,
2013-09-23 10:48:00,38.0,20.1,0.00,ENE,72,19.4,-999.0,48,0.00,,,-99.99,,2013-09-23 18:48:00,
2013-09-23 10:53:00,38.1,19.1,0.00,East,82,45.1,-999.0,45,0.04,,,-99.99,,2013-09-23 18:53:00,
2013-09-23 10:58:00,38.4,19.6,0.00,ENE,77,28.2,-999.0,46,0.00,,,-99.99,,2013-09-23 18:58:00,
2013-09-23 11:03:00,38.4,19.3,0.00,East,83,41.5,-999.0,45,0.00,,,-99.99,,2013-09-23 19:03:00,
2013-09-23 11:08:00,38.2,19.8,0.00,East,83,16.9,-999.0,47,0.00,,,-99.99,,2013-09-23 19:08:00,
2013-09-23 11:13:00,38.6,19.9,0.00,East,87,17.8,-999.0,46,0.00,,,-99.99,,2013-09-23 19:13:00,
2013-09-23 11:18:00,38.6,19.9,0.00,East,100,19.7,-999.0,46,0.00,,,-99.99,,2013-09-23 19:18:00,
2013-09-23 11:23:00,38.7,19.1,0.00,East,80,34.7,-999.0,44,0.00,,,-99.99,,2013-09-23 19:23:00,
2013-09-23 11:28:00,38.4,19.9,0.00,East,85,30.2,-999.0,46,0.00,,,-99.99,,2013-09-23 19:28:00,
2013-09-23 11:33:00,38.6,19.6,0.00,East,96,14.4,-999.0,46,0.00,,,-99.99,,2013-09-23 19:33:00,
2013-09-23 11:38:00,38.7,20.6,0.00,ESE,121,21.6,-999.0,47,0.00,,,-99.99,,2013-09-23 19:38:00,
2013-09-23 11:43:00,38.7,20.4,0.00,East,97,16.4,-999.0,47,0.00,,,-99.99,,2013-09-23 19:43:00,
2013-09-23 11:48:00,38.7,19.8,0.00,ENE,74,26.8,-999.0,46,0.00,,,-99.99,,2013-09-23 19:48:00,
2013-09-23 11:53:00,38.5,20.1,0.00,East,97,17.7,-999.0,47,0.00,,,-99.99,,2013-09-23 19:53:00,
2013-09-23 11:58:00,38.7,21.4,0.00,SE,128,10.6,-999.0,49,0.00,,,-99.99,,2013-09-23 19:58:00,
2013-09-23 12:03:00,38.6,21.0,0.00,ESE,109,15.9,-999.0,48,0.00,,,-99.99,,2013-09-23 20:03:00,
2013-09-23 12:08:00,38.8,21.0,0.00,ENE,73,11.4,-999.0,48,0.00,,,-99.99,,2013-09-23 20:08:00,
2013-09-23 12:13:00,38.7,20.9,0.00,East,81,19.2,-999.0,48,0.00,,,-99.99,,2013-09-23 20:13:00,
2013-09-23 12:18:00,39.2,21.3,0.00,NNW,343,3.2,-999.0,48,0.00,,,-99.99,,2013-09-23 20:18:00,
2013-09-23 12:23:00,39.4,20.4,0.00,East,86,19.0,-999.0,46,0.00,,,-99.99,,2013-09-23 20:23:00,
2013-09-23 12:28:00,39.4,19.5,0.00,ESE,112,17.8,-999.0,44,0.00,,,-99.99,,2013-09-23 20:28:00,
2013-09-23 12:33:00,39.7,19.0,0.00,ENE,75,25.1,-999.0,43,0.00,,,-99.99,,2013-09-23 20:33:00,
2013-09-23 12:38:00,39.6,19.9,0.00,NE,48,9.8,-999.0,44,0.00,,,-99.99,,2013-09-23 20:38:00,
2013-09-23 12:43:00,39.6,20.6,0.00,ESE,115,19.9,-999.0,46,0.00,,,-99.99,,2013-09-23 20:43:00,
2013-09-23 12:48:00,39.5,19.5,0.00,ESE,121,24.5,-999.0,44,0.00,,,-99.99,,2013-09-23 20:48:00,
2013-09-23 12:53:00,40.2,21.2,0.00,ESE,105,15.3,-999.0,46,0.00,,,-99.99,,2013-09-23 20:53:00,
2013-09-23 12:58:00,40.2,19.8,0.00,SSE,152,22.0,-999.0,43,0.00,,,-99.99,,2013-09-23 20:58:00,
2013-09-23 13:03:00,40.6,19.9,0.00,East,93,23.1,-999.0,43,0.00,,,-99.99,,2013-09-23 21:03:00,
2013-09-23 13:08:00,40.5,19.7,0.00,ENE,74,26.9,-999.0,42,0.00,,,-99.99,,2013-09-23 21:08:00,
2013-09-23 13:13:00,41.1,19.9,0.00,ENE,72,8.8,-999.0,42,0.00,,,-99.99,,2013-09-23 21:13:00,
2013-09-23 13:18:00,41.0,19.1,0.00,ESE,109,27.9,-999.0,41,0.00,,,-99.99,,2013-09-23 21:18:00,
2013-09-23 13:23:00,41.3,19.5,0.00,ENE,66,16.0,-999.0,41,0.00,,,-99.99,,2013-09-23 21:23:00,
2013-09-23 13:28:00,41.2,19.1,0.00,East,90,15.2,-999.0,40,0.00,,,-99.99,,2013-09-23 21:28:00,
2013-09-23 13:33:00,41.2,19.1,0.00,East,101,20.3,-999.0,40,0.00,,,-99.99,,2013-09-23 21:33:00,
2013-09-23 13:38:00,41.3,19.4,0.00,East,86,24.9,-999.0,41,0.00,,,-99.99,,2013-09-23 21:38:00,
2013-09-23 13:43:00,41.2,18.8,0.00,ENE,72,14.6,-999.0,40,0.00,,,-99.99,,2013-09-23 21:43:00,
2013-09-23 13:48:00,41.7,18.4,0.00,ENE,62,32.8,-999.0,38,0.00,,,-99.99,,2013-09-23 21:48:00,
2013-09-23 13:53:00,41.7,19.3,0.00,ENE,74,9.7,-999.0,40,0.00,,,-99.99,,2013-09-23 21:53:00,
2013-09-23 13:58:00,41.9,18.8,0.00,SSE,152,10.4,-999.0,39,0.00,,,-99.99,,2013-09-23 21:58:00,
2013-09-23 14:03:00,42.1,19.3,0.00,NE,50,22.2,-999.0,39,0.00,,,-99.99,,2013-09-23 22:03:00,
2013-09-23 14:08:00,41.7,19.2,0.00,ESE,111,13.1,-999.0,40,0.00,,,-99.99,,2013-09-23 22:08:00,
2013-09-23 14:13:00,41.9,19.0,0.00,East,80,24.0,-999.0,39,0.00,,,-99.99,,2013-09-23 22:13:00,
2013-09-23 14:18:00,42.1,18.8,0.00,East,90,12.1,-999.0,38,0.00,,,-99.99,,2013-09-23 22:18:00,
2013-09-23 14:23:00,42.3,18.7,0.00,SSE,160,10.2,-999.0,38,0.00,,,-99.99,,2013-09-23 22:23:00,
2013-09-23 14:28:00,42.4,19.3,0.00,ENE,70,24.9,-999.0,39,0.00,,,-99.99,,2013-09-23 22:28:00,
2013-09-23 14:33:00,42.6,20.3,0.00,SE,135,24.9,-999.0,40,0.00,,,-99.99,,2013-09-23 22:33:00,
2013-09-23 14:38:00,42.6,20.0,0.00,ENE,69,10.6,-999.0,40,0.00,,,-99.99,,2013-09-23 22:38:00,
2013-09-23 14:43:00,42.7,19.3,0.00,ENE,74,18.6,-999.0,38,0.00,,,-99.99,,2013-09-23 22:43:00,
2013-09-23 14:48:00,42.6,17.9,0.00,ENE,74,20.5,-999.0,36,0.00,,,-99.99,,2013-09-23 22:48:00,
2013-09-23 14:53:00,42.3,19.0,0.00,ENE,74,14.2,-999.0,38,0.00,,,-99.99,,2013-09-23 22:53:00,
2013-09-23 14:58:00,42.5,21.0,0.00,East,88,26.1,-999.0,41,0.00,,,-99.99,,2013-09-23 22:58:00,
2013-09-23 15:03:00,42.3,20.9,0.00,SE,133,8.7,-999.0,42,0.00,,,-99.99,,2013-09-23 23:03:00,
2013-09-23 15:08:00,42.4,19.3,0.00,ESE,114,31.7,-999.0,39,0.00,,,-99.99,,2013-09-23 23:08:00,
2013-09-23 15:13:00,42.3,18.4,0.00,ESE,120,32.1,-999.0,37,0.11,,,-99.99,,2013-09-23 23:13:00,
2013-09-23 15:18:00,42.0,19.5,0.00,SE,135,27.1,-999.0,40,0.00,,,-99.99,,2013-09-23 23:18:00,
2013-09-23 15:23:00,42.1,19.7,0.00,East,87,22.1,-999.0,40,0.00,,,-99.99,,2013-09-23 23:23:00,
2013-09-23 15:28:00,42.4,18.4,0.00,East,79,20.7,-999.0,37,0.00,,,-99.99,,2013-09-23 23:28:00,
2013-09-23 15:33:00,42.3,19.8,0.00,ENE,69,22.8,-999.0,40,0.00,,,-99.99,,2013-09-23 23:33:00,
2013-09-23 15:38:00,42.6,20.6,0.00,ENE,78,31.7,-999.0,41,0.01,,,-99.99,,2013-09-23 23:38:00,
2013-09-23 15:43:00,42.7,22.1,0.00,East,86,13.9,-999.0,43,0.00,,,-99.99,,2013-09-23 23:43:00,
2013-09-23 15:49:00,42.7,18.6,0.00,ENE,65,28.7,-999.0,37,0.00,,,-99.99,,2013-09-23 23:49:00,
2013-09-23 15:54:00,42.5,17.7,0.00,NE,56,29.1,-999.0,36,0.00,,,-99.99,,2013-09-23 23:54:00,
2013-09-23 15:59:00,42.1,19.1,0.00,East,84,24.5,-999.0,39,0.00,,,-99.99,,2013-09-23 23:59:00,
2013-09-23 16:04:00,42.3,19.6,0.00,East,89,37.6,-999.0,39,0.00,,,-99.99,,2013-09-24 00:04:00,
2013-09-23 16:09:00,42.4,20.6,0.00,East,99,10.8,-999.0,41,0.00,,,-99.99,,2013-09-24 00:09:00,
2013-09-23 16:14:00,42.3,20.9,0.00,ENE,74,26.0,-999.0,41,0.00,,,-99.99,,2013-09-24 00:14:00,
2013-09-23 16:19:00,42.4,20.7,0.00,ESE,112,27.5,-999.0,41,0.00,,,-99.99,,2013-09-24 00:19:00,
2013-09-23 16:24:00,42.8,20.9,0.00,ESE,118,17.0,-999.0,41,0.00,,,-99.99,,2013-09-24 00:24:00,
2013-09-23 16:29:00,42.8,19.5,0.00,East,85,21.7,-999.0,38,0.00,,,-99.99,,2013-09-24 00:29:00,
2013-09-23 16:34:00,43.1,19.6,0.00,East,95,12.7,-999.0,38,0.00,,,-99.99,,2013-09-24 00:34:00,
2013-09-23 16:39:00,43.2,19.9,0.00,SE,135,28.3,-999.0,38,0.00,,,-99.99,,2013-09-24 00:39:00,
2013-09-23 16:44:00,43.5,19.6,0.00,ENE,71,34.0,-999.0,38,0.01,,,-99.99,,2013-09-24 00:44:00,
2013-09-23 16:49:00,43.5,21.2,0.00,East,82,9.6,-999.0,40,0.00,,,-99.99,,2013-09-24 00:49:00,
2013-09-23 16:55:00,43.3,20.9,0.00,ESE,104,8.3,-999.0,40,0.00,,,-99.99,,2013-09-24 00:55:00,
2013-09-23 17:00:00,43.4,21.7,0.00,East,80,24.4,-999.0,41,0.00,,,-99.99,,2013-09-24 01:00:00,
2013-09-23 17:05:00,43.4,21.1,0.00,ESE,105,23.4,-999.0,40,0.00,,,-99.99,,2013-09-24 01:05:00,
2013-09-23 17:10:00,43.5,23.1,0.00,SE,132,5.4,-999.0,43,0.00,,,-99.99,,2013-09-24 01:10:00,
2013-09-23 17:15:00,43.4,22.9,0.00,East,96,15.5,-999.0,43,0.00,,,-99.99,,2013-09-24 01:15:00,
2013-09-23 17:20:00,43.3,24.2,0.00,East,98,15.1,-999.0,46,0.00,,,-99.99,,2013-09-24 01:20:00,
2013-09-23 17:25:00,43.5,23.3,0.00,SE,134,15.6,-999.0,44,0.00,,,-99.99,,2013-09-24 01:25:00,
2013-09-23 17:30:00,42.9,22.8,0.00,East,83,31.3,-999.0,44,0.00,,,-99.99,,2013-09-24 01:30:00,
2013-09-23 17:35:00,43.1,20.7,0.00,ENE,66,27.4,-999.0,40,0.00,,,-99.99,,2013-09-24 01:35:00,
2013-09-23 17:40:00,43.0,21.6,0.00,ESE,112,19.9,-999.0,42,0.00,,,-99.99,,2013-09-24 01:40:00,
2013-09-23 17:45:00,42.9,21.7,0.00,ENE,74,24.6,-999.0,42,0.00,,,-99.99,,2013-09-24 01:45:00,
2013-09-23 17:50:00,43.0,21.8,0.00,SSE,168,12.7,-999.0,42,0.00,,,-99.99,,2013-09-24 01:50:00,
2013-09-23 17:55:00,43.0,21.9,0.00,East,87,17.6,-999.0,42,0.00,,,-99.99,,2013-09-24 01:55:00,
2013-09-23 18:00:00,43.0,21.7,0.00,East,85,26.5,-999.0,42,0.00,,,-99.99,,2013-09-24 02:00:00,
2013-09-23 18:05:00,42.8,21.5,0.00,ENE,76,15.9,-999.0,42,0.00,,,-99.99,,2013-09-24 02:05:00,
2013-09-23 18:10:00,42.7,20.6,0.00,NE,51,18.9,-999.0,41,0.00,,,-99.99,,2013-09-24 02:10:00,
2013-09-23 18:15:00,42.6,21.6,0.00,East,91,25.9,-999.0,42,0.00,,,-99.99,,2013-09-24 02:15:00,
2013-09-23 18:20:00,42.7,21.6,0.00,ENE,75,23.9,-999.0,42,0.00,,,-99.99,,2013-09-24 02:20:00,
2013-09-23 18:25:00,42.7,21.5,0.00,East,81,32.4,-999.0,42,0.00,,,-99.99,,2013-09-24 02:25:00,
2013-09-23 18:30:00,42.8,21.6,0.00,ENE,78,20.8,-999.0,42,0.00,,,-99.99,,2013-09-24 02:30:00,
2013-09-23 18:35:00,42.4,22.1,0.00,East,87,20.2,-999.0,44,0.00,,,-99.99,,2013-09-24 02:35:00,
2013-09-23 18:40:00,42.6,22.2,0.00,East,95,16.9,-999.0,43,0.00,,,-99.99,,2013-09-24 02:40:00,
2013-09-23 18:45:00,42.5,22.3,0.00,East,87,13.5,-999.0,44,0.00,,,-99.99,,2013-09-24 02:45:00,
2013-09-23 18:50:00,42.6,23.4,0.00,ENE,75,24.2,-999.0,46,0.00,,,-99.99,,2013-09-24 02:50:00,
2013-09-23 18:55:00,42.4,23.2,0.00,ESE,106,17.1,-999.0,46,0.00,,,-99.99,,2013-09-24 02:55:00,
2013-09-23 19:00:00,42.4,23.7,0.00,East,86,20.4,-999.0,47,0.00,,,-99.99,,2013-09-24 03:00:00,
2013-09-23 19:05:00,42.3,23.6,0.00,East,93,15.2,-999.0,47,0.00,,,-99.99,,2013-09-24 03:05:00,
2013-09-23 19:10:00,42.2,23.1,0.00,ESE,104,22.5,-999.0,46,0.00,,,-99.99,,2013-09-24 03:10:00,
2013-09-23 19:15:00,42.1,22.9,0.00,ENE,76,21.4,-999.0,46,0.00,,,-99.99,,2013-09-24 03:15:00,
2013-09-23 19:20:00,42.0,23.4,0.00,ENE,59,15.6,-999.0,47,0.00,,,-99.99,,2013-09-24 03:20:00,
2013-09-23 19:25:00,42.1,22.9,0.00,East,81,21.4,-999.0,46,0.00,,,-99.99,,2013-09-24 03:25:00,
2013-09-23 19:30:00,41.9,22.7,0.00,East,97,17.2,-999.0,46,0.00,,,-99.99,,2013-09-24 03:30:00,
2013-09-23 19:35:00,41.6,23.0,0.00,NE,46,14.2,-999.0,47,0.00,,,-99.99,,2013-09-24 03:35:00,
2013-09-23 19:40:00,41.4,23.2,0.00,ENE,78,17.8,-999.0,48,0.00,,,-99.99,,2013-09-24 03:40:00,
2013-09-23 19:45:00,41.5,23.0,0.00,ENE,64,15.0,-999.0,47,0.00,,,-99.99,,2013-09-24 03:45:00,
2013-09-23 19:50:00,41.1,22.9,0.00,East,83,24.5,-999.0,48,0.00,,,-99.99,,2013-09-24 03:50:00,
2013-09-23 19:55:00,41.0,22.2,0.00,ESE,106,11.5,-999.0,46,0.00,,,-99.99,,2013-09-24 03:55:00,
2013-09-23 20:00:00,41.2,22.2,0.00,East,79,12.5,-999.0,46,0.00,,,-99.99,,2013-09-24 04:00:00,
2013-09-23 20:02:00,41.2,21.3,0.00,ESE,117,15.5,-999.0,44,0.00,,,-99.99,,2013-09-24 04:02:00,
2013-09-23 20:05:00,41.5,21.6,0.00,NE,56,16.3,-999.0,44,0.00,,,-99.99,,2013-09-24 04:05:00,
2013-09-23 20:06:00,41.3,21.4,0.00,ESE,104,8.2,-999.0,44,0.00,,,-99.99,,2013-09-24 04:06:00,
2013-09-23 20:07:00,41.2,20.8,0.00,SE,132,25.3,-999.0,43,0.00,,,-99.99,,2013-09-24 04:07:00,
2013-09-23 20:09:00,41.3,21.3,0.00,ENE,75,11.1,-999.0,44,0.00,,,-99.99,,2013-09-24 04:09:00,
2013-09-23 20:14:00,40.8,21.2,0.00,East,79,23.4,-999.0,45,0.00,,,-99.99,,2013-09-24 04:14:00,
2013-09-23 20:19:00,41.2,21.0,0.00,East,86,27.8,-999.0,44,0.00,,,-99.99,,2013-09-24 04:19:00,
2013-09-23 20:24:00,41.0,21.9,0.00,ENE,74,13.4,-999.0,46,0.00,,,-99.99,,2013-09-24 04:24:00,
2013-09-23 20:29:00,40.9,22.1,0.00,East,87,19.8,-999.0,46,0.00,,,-99.99,,2013-09-24 04:29:00,
2013-09-23 20:34:00,40.6,22.3,0.00,ENE,63,17.2,-999.0,47,0.00,,,-99.99,,2013-09-24 04:34:00,
2013-09-23 20:39:00,40.8,22.7,0.00,East,87,10.6,-999.0,48,0.00,,,-99.99,,2013-09-24 04:39:00,
2013-09-23 20:44:00,40.6,23.2,0.00,East,92,11.7,-999.0,49,0.00,,,-99.99,,2013-09-24 04:44:00,
2013-09-23 20:49:00,40.5,23.2,0.00,ENE,77,12.1,-999.0,49,0.00,,,-99.99,,2013-09-24 04:49:00,
2013-09-23 20:54:00,40.7,22.8,0.00,ENE,73,21.1,-999.0,48,0.00,,,-99.99,,2013-09-24 04:54:00,
2013-09-23 20:59:00,40.6,22.6,0.00,East,82,7.8,-999.0,48,0.00,,,-99.99,,2013-09-24 04:59:00,
2013-09-23 21:04:00,40.6,22.7,0.00,East,81,18.4,-999.0,48,0.00,,,-99.99,,2013-09-24 05:04:00,
2013-09-23 21:09:00,40.7,22.6,0.00,NE,35,11.1,-999.0,48,0.00,,,-99.99,,2013-09-24 05:09:00,
2013-09-23 21:14:00,40.5,23.8,0.00,ENE,73,2.0,-999.0,51,0.00,,,-99.99,,2013-09-24 05:14:00,
2013-09-23 21:19:00,40.6,23.8,0.00,NE,51,17.2,-999.0,50,0.00,,,-99.99,,2013-09-24 05:19:00,
2013-09-23 21:24:00,40.3,24.1,0.00,NNW,337,6.0,-999.0,52,0.00,,,-99.99,,2013-09-24 05:24:00,
2013-09-23 21:29:00,40.5,24.1,0.00,NE,40,16.1,-999.0,51,0.00,,,-99.99,,2013-09-24 05:29:00,
2013-09-23 21:34:00,40.3,24.4,0.00,NNW,342,4.3,-999.0,52,0.00,,,-99.99,,2013-09-24 05:34:00,
2013-09-23 21:39:00,40.5,24.5,0.00,ENE,69,17.7,-999.0,52,0.00,,,-99.99,,2013-09-24 05:39:00,
2013-09-23 21:44:00,40.3,26.0,0.00,ENE,69,13.1,-999.0,56,0.00,,,-99.99,,2013-09-24 05:44:00,
2013-09-23 21:49:00,40.2,25.6,0.00,East,88,24.1,-999.0,55,0.00,,,-99.99,,2013-09-24 05:49:00,
2013-09-23 21:54:00,40.3,25.9,0.00,East,98,24.4,-999.0,55,0.00,,,-99.99,,2013-09-24 05:54:00,
2013-09-23 21:59:00,40.0,26.1,0.00,East,96,23.4,-999.0,57,0.00,,,-99.99,,2013-09-24 05:59:00,
2013-09-23 22:04:00,39.7,26.6,0.00,East,99,21.4,-999.0,59,0.00,,,-99.99,,2013-09-24 06:04:00,
2013-09-23 22:09:00,39.5,26.8,0.00,East,80,18.2,-999.0,60,0.00,,,-99.99,,2013-09-24 06:09:00,
2013-09-23 22:14:00,39.3,27.2,0.00,East,81,14.4,-999.0,61,0.00,,,-99.99,,2013-09-24 06:14:00,
2013-09-23 22:19:00,39.3,27.4,0.00,East,81,15.7,-999.0,62,0.00,,,-99.99,,2013-09-24 06:19:00,
2013-09-23 22:24:00,39.1,26.1,0.00,East,90,21.8,-999.0,59,0.00,,,-99.99,,2013-09-24 06:24:00,
2013-09-23 22:29:00,39.4,24.4,0.00,ENE,69,20.0,-999.0,54,0.00,,,-99.99,,2013-09-24 06:29:00,
2013-09-23 22:34:00,39.2,24.9,0.00,East,80,20.2,-999.0,56,0.00,,,-99.99,,2013-09-24 06:34:00,
2013-09-23 22:39:00,39.8,20.6,0.00,East,95,21.2,-999.0,45,0.00,,,-99.99,,2013-09-24 06:39:00,
2013-09-23 22:44:00,39.2,22.4,0.00,East,94,20.9,-999.0,50,0.00,,,-99.99,,2013-09-24 06:44:00,
2013-09-23 22:49:00,39.1,22.5,0.00,East,86,21.1,-999.0,51,0.00,,,-99.99,,2013-09-24 06:49:00,
2013-09-23 22:54:00,38.8,22.5,0.00,ENE,78,10.6,-999.0,51,0.00,,,-99.99,,2013-09-24 06:54:00,
2013-09-23 22:59:00,39.0,21.5,0.00,ESE,114,12.6,-999.0,49,0.00,,,-99.99,,2013-09-24 06:59:00,
2013-09-23 23:04:00,39.4,19.5,0.00,East,82,10.4,-999.0,44,0.00,,,-99.99,,2013-09-24 07:04:00,
2013-09-23 23:09:00,39.7,20.0,0.00,ENE,77,19.5,-999.0,44,0.00,,,-99.99,,2013-09-24 07:09:00,
2013-09-23 23:14:00,39.5,20.3,0.00,NE,35,4.0,-999.0,45,0.00,,,-99.99,,2013-09-24 07:14:00,
2013-09-23 23:19:00,38.8,20.7,0.00,East,93,6.3,-999.0,47,0.00,,,-99.99,,2013-09-24 07:19:00,
2013-09-23 23:24:00,38.6,20.6,0.00,NNE,30,3.7,-999.0,47,0.00,,,-99.99,,2013-09-24 07:24:00,
2013-09-23 23:29:00,38.7,20.9,0.00,SSE,149,4.0,-999.0,48,0.00,,,-99.99,,2013-09-24 07:29:00,
2013-09-23 23:34:00,39.5,20.2,0.00,East,91,5.1,-999.0,45,0.00,,,-99.99,,2013-09-24 07:34:00,
2013-09-23 23:39:00,39.2,21.0,0.00,East,97,14.5,-999.0,47,0.00,,,-99.99,,2013-09-24 07:39:00,
2013-09-23 23:44:00,39.3,21.6,0.00,East,87,14.3,-999.0,48,0.00,,,-99.99,,2013-09-24 07:44:00,
2013-09-23 23:49:00,39.4,21.7,0.00,ESE,105,9.8,-999.0,48,0.00,,,-99.99,,2013-09-24 07:49:00,
2013-09-23 23:54:00,39.0,22.5,0.00,ENE,71,7.3,-999.0,51,0.00,,,-99.99,,2013-09-24 07:54:00,
2013-09-23 23:59:00,38.5,22.6,0.00,ENE,77,11.4,-999.0,52,0.00,,,-99.99,,2013-09-24 07:59:00,